createdAt,value
2023-05-05T00:01:19.075Z,64.20
2023-05-05T00:03:46.083Z,64.60
2023-05-05T00:06:13.255Z,64.60
2023-05-05T00:08:42.000Z,64.80
2023-05-05T00:11:09.304Z,65.00
2023-05-05T00:13:36.293Z,65.00
2023-05-05T00:16:03.296Z,65.00
2023-05-05T00:18:30.531Z,64.80
2023-05-05T00:20:57.420Z,64.80
2023-05-05T00:23:24.252Z,64.70
2023-05-05T00:25:51.169Z,64.80
2023-05-05T00:28:18.330Z,65.00
2023-05-05T00:30:45.632Z,65.20
2023-05-05T00:33:12.807Z,65.30
2023-05-05T00:35:39.689Z,65.50
2023-05-05T00:38:07.884Z,65.70
2023-05-05T00:40:34.777Z,65.90
2023-05-05T00:43:03.136Z,66.30
2023-05-05T00:45:30.361Z,66.90
2023-05-05T00:47:59.187Z,67.10
2023-05-05T00:50:30.744Z,67.60
2023-05-05T00:53:03.309Z,66.90
2023-05-05T00:55:31.076Z,66.90
2023-05-05T00:58:02.783Z,66.80
2023-05-05T01:00:30.159Z,67.10
2023-05-05T01:02:57.500Z,67.50
2023-05-05T01:05:25.884Z,68.10
2023-05-05T01:08:02.978Z,68.90
2023-05-05T01:10:45.262Z,69.60
2023-05-05T01:13:44.643Z,70.30
2023-05-05T01:16:26.731Z,71.20
2023-05-05T01:19:41.309Z,71.50
2023-05-05T01:22:12.046Z,72.20
2023-05-05T01:25:00.145Z,71.90
2023-05-05T01:27:45.340Z,72.40
2023-05-05T01:30:26.396Z,72.90
2023-05-05T01:32:58.193Z,73.10
2023-05-05T01:35:30.152Z,73.20
2023-05-05T01:38:09.747Z,73.60
2023-05-05T01:40:45.354Z,74.20
2023-05-05T01:43:15.213Z,74.30
2023-05-05T01:45:45.243Z,74.60
2023-05-05T01:48:15.066Z,75.00
2023-05-05T01:50:43.026Z,75.20
2023-05-05T01:53:11.799Z,75.30
2023-05-05T01:55:39.875Z,75.50
2023-05-05T01:58:08.315Z,75.70
2023-05-05T02:00:35.525Z,75.80
2023-05-05T02:03:04.909Z,75.90
2023-05-05T02:05:34.144Z,76.10
2023-05-05T02:08:02.630Z,76.30
2023-05-05T02:10:30.562Z,76.60
2023-05-05T02:13:00.846Z,76.90
2023-05-05T02:15:29.026Z,77.20
2023-05-05T02:17:58.075Z,77.40
2023-05-05T02:20:26.812Z,77.90
2023-05-05T02:22:54.331Z,78.60
2023-05-05T02:25:22.262Z,79.50
2023-05-05T02:27:50.462Z,80.60
2023-05-05T02:30:19.852Z,81.60
2023-05-05T02:32:56.697Z,82.40
2023-05-05T02:35:29.797Z,83.30
2023-05-05T02:38:01.866Z,84.00
2023-05-05T02:40:31.786Z,84.60
2023-05-05T02:43:01.856Z,85.30
2023-05-05T02:45:29.041Z,86.00
2023-05-05T02:47:56.467Z,86.80
2023-05-05T02:50:23.323Z,87.60
2023-05-05T02:52:50.269Z,88.40
2023-05-05T02:55:17.272Z,89.10
2023-05-05T02:57:57.597Z,90.00
2023-05-05T03:01:22.091Z,90.40
2023-05-05T03:04:02.650Z,90.90
2023-05-05T03:06:32.046Z,91.00
2023-05-05T03:09:10.785Z,91.30
2023-05-05T03:11:41.095Z,91.70
2023-05-05T03:14:11.489Z,92.00
2023-05-05T03:16:40.990Z,92.40
2023-05-05T03:19:10.382Z,92.60
2023-05-05T03:21:38.846Z,93.00
2023-05-05T03:24:19.465Z,93.20
2023-05-05T03:26:48.606Z,93.50
2023-05-05T03:29:16.127Z,93.60
2023-05-05T03:31:43.070Z,93.70
2023-05-05T03:34:10.281Z,93.90
2023-05-05T03:36:37.983Z,94.00
2023-05-05T03:39:05.407Z,94.20
2023-05-05T03:41:32.264Z,94.40
2023-05-05T03:43:59.418Z,94.60
2023-05-05T03:46:26.426Z,94.70
2023-05-05T03:48:53.461Z,94.80
2023-05-05T03:51:20.381Z,95.00
2023-05-05T03:53:48.418Z,95.10
2023-05-05T03:56:15.251Z,95.20
2023-05-05T03:58:42.318Z,95.30
2023-05-05T04:01:10.691Z,95.40
2023-05-05T04:03:39.356Z,95.50
2023-05-05T04:06:06.692Z,95.60
2023-05-05T04:11:19.857Z,95.60
2023-05-05T04:16:32.117Z,95.70
2023-05-05T04:19:00.594Z,95.70
2023-05-05T04:21:27.990Z,96.10
2023-05-05T04:23:55.570Z,95.90
2023-05-05T04:26:22.483Z,96.00
2023-05-05T04:28:49.575Z,96.10
2023-05-05T04:31:16.544Z,96.20
2023-05-05T04:36:30.280Z,96.40
2023-05-05T04:38:58.511Z,96.50
2023-05-05T04:41:26.806Z,96.60
2023-05-05T04:43:55.972Z,96.80
2023-05-05T04:46:25.889Z,96.80
2023-05-05T04:48:53.117Z,96.90
2023-05-05T04:51:21.825Z,97.00
2023-05-05T04:53:48.882Z,97.10
2023-05-05T04:56:15.821Z,97.10
2023-05-05T04:58:42.737Z,97.20
2023-05-05T05:01:11.419Z,97.20
2023-05-05T05:03:38.426Z,97.20
2023-05-05T05:06:05.367Z,97.10
2023-05-05T05:08:32.582Z,97.10
2023-05-05T05:11:01.725Z,97.20
2023-05-05T05:13:30.711Z,97.20
2023-05-05T05:15:57.889Z,97.10
2023-05-05T05:18:25.945Z,97.20
2023-05-05T05:20:58.797Z,97.20
2023-05-05T05:23:25.705Z,97.20
2023-05-05T05:25:56.254Z,97.20
2023-05-05T05:28:23.922Z,96.90
2023-05-05T05:30:52.043Z,96.40
2023-05-05T05:33:20.156Z,95.80
2023-05-05T05:35:47.001Z,95.10
2023-05-05T05:38:13.781Z,94.60
2023-05-05T05:40:41.225Z,93.90
2023-05-05T05:43:09.680Z,93.20
2023-05-05T05:45:36.563Z,92.50
2023-05-05T05:48:03.790Z,91.80
2023-05-05T05:50:31.783Z,91.20
2023-05-05T05:52:58.602Z,90.40
2023-05-05T05:55:25.466Z,89.20
2023-05-05T05:57:52.344Z,87.70
2023-05-05T06:00:19.360Z,86.70
2023-05-05T06:02:46.107Z,84.50
2023-05-05T06:05:13.322Z,82.50
2023-05-05T06:07:40.155Z,80.50
2023-05-05T06:10:25.155Z,78.80
2023-05-05T06:12:54.414Z,77.10
2023-05-05T06:15:21.294Z,75.40
2023-05-05T06:17:48.211Z,74.20
2023-05-05T06:20:15.132Z,73.00
2023-05-05T06:22:42.174Z,71.50
2023-05-05T06:25:09.182Z,70.80
2023-05-05T06:27:36.379Z,68.70
2023-05-05T06:30:03.352Z,67.50
2023-05-05T06:32:30.169Z,66.10
2023-05-05T06:34:57.139Z,65.10
2023-05-05T06:37:24.247Z,64.10
2023-05-05T06:39:54.552Z,62.80
2023-05-05T06:42:22.367Z,61.80
2023-05-05T06:44:51.662Z,61.20
2023-05-05T06:47:21.394Z,60.70
2023-05-05T06:49:48.693Z,60.10
2023-05-05T06:52:16.533Z,59.70
2023-05-05T06:54:44.145Z,58.00
2023-05-05T06:57:14.285Z,57.80
2023-05-05T06:59:42.853Z,57.40
2023-05-05T07:02:10.146Z,56.90
2023-05-05T07:04:37.688Z,55.70
2023-05-05T07:07:05.998Z,54.90
2023-05-05T07:09:33.204Z,54.10
2023-05-05T07:12:00.412Z,53.50
2023-05-05T07:14:28.348Z,52.90
2023-05-05T07:16:55.361Z,52.40
2023-05-05T07:19:24.786Z,52.10
2023-05-05T07:21:52.448Z,51.40
2023-05-05T07:24:20.143Z,50.70
2023-05-05T07:26:50.292Z,49.90
2023-05-05T07:29:18.451Z,49.50
2023-05-05T07:31:46.261Z,48.30
2023-05-05T07:34:13.669Z,47.90
2023-05-05T07:36:45.530Z,47.30
2023-05-05T07:39:15.377Z,46.30
2023-05-05T07:41:43.673Z,46.70
2023-05-05T07:44:12.859Z,45.90
2023-05-05T07:46:40.421Z,45.40
2023-05-05T07:49:08.849Z,44.90
2023-05-05T07:51:35.794Z,44.80
2023-05-05T07:54:02.927Z,44.20
2023-05-05T07:56:42.324Z,43.80
2023-05-05T07:59:10.092Z,44.10
2023-05-05T08:01:43.158Z,44.00
2023-05-05T08:04:10.952Z,43.80
2023-05-05T08:06:44.976Z,43.70
2023-05-05T08:09:19.537Z,42.70
2023-05-05T08:11:47.173Z,41.90
2023-05-05T08:14:15.670Z,41.70
2023-05-05T08:16:44.757Z,41.30
2023-05-05T08:19:27.478Z,41.00
2023-05-05T08:21:56.175Z,40.20
2023-05-05T08:24:23.303Z,40.20
2023-05-05T08:26:50.372Z,40.00
2023-05-05T08:29:17.613Z,39.30
2023-05-05T08:31:46.756Z,39.10
2023-05-05T08:34:14.847Z,39.70
2023-05-05T08:36:41.871Z,40.70
2023-05-05T08:39:08.992Z,42.30
2023-05-05T08:41:36.102Z,41.50
2023-05-05T08:44:04.342Z,40.60
2023-05-05T08:46:33.050Z,41.10
2023-05-05T08:49:02.192Z,41.80
2023-05-05T08:51:37.151Z,43.20
2023-05-05T08:54:07.710Z,44.40
2023-05-05T08:56:42.538Z,45.20
2023-05-05T08:59:19.337Z,45.70
2023-05-05T09:01:47.681Z,46.70
2023-05-05T09:04:27.794Z,47.10
2023-05-05T09:06:57.412Z,47.50
2023-05-05T09:09:24.965Z,47.90
2023-05-05T09:11:54.093Z,48.60
2023-05-05T09:14:22.630Z,49.50
2023-05-05T09:17:08.580Z,50.00
2023-05-05T09:20:07.213Z,50.60
2023-05-05T09:22:41.649Z,51.50
2023-05-05T09:25:17.558Z,51.90
2023-05-05T09:27:47.784Z,51.50
2023-05-05T09:30:18.115Z,51.30
2023-05-05T09:32:47.631Z,50.60
2023-05-05T09:35:15.363Z,49.90
2023-05-05T09:37:43.277Z,49.10
2023-05-05T09:40:14.299Z,48.90
2023-05-05T09:42:44.934Z,48.80
2023-05-05T09:45:30.573Z,49.60
2023-05-05T09:48:00.890Z,49.80
2023-05-05T09:50:31.232Z,50.80
2023-05-05T09:53:08.522Z,51.50
2023-05-05T09:55:38.855Z,51.80
2023-05-05T09:58:26.976Z,52.30
2023-05-05T10:00:58.164Z,53.10
2023-05-05T10:03:26.190Z,56.30
2023-05-05T10:05:58.389Z,60.30
2023-05-05T10:08:34.483Z,64.80
2023-05-05T10:11:07.360Z,68.50
2023-05-05T10:13:40.130Z,70.80
2023-05-05T10:16:09.540Z,73.60
2023-05-05T10:18:40.242Z,75.00
2023-05-05T10:21:08.811Z,76.90
2023-05-05T10:23:46.434Z,79.10
2023-05-05T10:26:15.124Z,80.60
2023-05-05T10:28:46.256Z,81.10
2023-05-05T10:31:32.136Z,81.80
2023-05-05T10:34:09.069Z,82.50
2023-05-05T10:36:39.071Z,82.30
2023-05-05T10:39:10.873Z,82.20
2023-05-05T10:41:39.521Z,82.20
2023-05-05T10:44:10.817Z,82.60
2023-05-05T10:46:38.389Z,83.30
2023-05-05T10:49:29.745Z,83.20
2023-05-05T10:52:02.449Z,83.50
2023-05-05T10:55:02.095Z,84.40
2023-05-05T10:57:31.201Z,85.60
2023-05-05T10:59:58.054Z,86.30
2023-05-05T11:02:30.758Z,87.40
2023-05-05T11:05:17.477Z,88.30
2023-05-05T11:07:46.635Z,89.40
2023-05-05T11:10:15.591Z,89.70
2023-05-05T11:12:52.248Z,90.40
2023-05-05T11:15:31.498Z,91.00
2023-05-05T11:18:05.892Z,91.30
2023-05-05T11:20:41.181Z,91.50
2023-05-05T11:23:08.151Z,91.70
2023-05-05T11:25:35.443Z,91.90
2023-05-05T11:28:13.008Z,92.40
2023-05-05T11:30:55.337Z,93.10
2023-05-05T11:33:52.088Z,93.30
2023-05-05T11:36:21.161Z,93.70
2023-05-05T11:39:02.604Z,93.60
2023-05-05T11:41:32.374Z,93.90
2023-05-05T11:44:11.449Z,93.80
2023-05-05T11:46:43.371Z,93.90
2023-05-05T11:49:10.687Z,94.20
2023-05-05T11:51:38.113Z,94.60
2023-05-05T11:54:05.376Z,95.00
2023-05-05T11:56:35.504Z,95.20
2023-05-05T11:59:10.849Z,95.40
2023-05-05T12:01:41.923Z,95.70
2023-05-05T12:04:15.665Z,95.80
2023-05-05T12:06:45.790Z,96.00
2023-05-05T12:09:16.495Z,96.00
2023-05-05T12:11:53.962Z,96.40
2023-05-05T12:14:21.829Z,96.60
2023-05-05T12:17:08.533Z,96.80
2023-05-05T12:19:36.575Z,97.10
2023-05-05T12:22:04.811Z,97.00
2023-05-05T12:24:36.116Z,97.10
2023-05-05T12:27:09.682Z,97.30
2023-05-05T12:29:36.816Z,97.00
2023-05-05T12:32:04.682Z,97.00
2023-05-05T12:34:36.653Z,97.10
2023-05-05T12:37:04.768Z,97.10
2023-05-05T12:39:37.459Z,97.00
2023-05-05T12:42:05.637Z,97.00
2023-05-05T12:44:40.896Z,97.20
2023-05-05T12:47:07.849Z,96.90
2023-05-05T12:49:50.012Z,96.60
2023-05-05T12:52:17.519Z,96.70
2023-05-05T12:55:14.471Z,96.70
2023-05-05T12:58:05.446Z,96.90
2023-05-05T13:00:33.241Z,96.90
2023-05-05T13:03:00.592Z,96.80
2023-05-05T13:05:36.699Z,97.00
2023-05-05T13:08:03.963Z,97.20
2023-05-05T13:10:32.809Z,97.30
2023-05-05T13:13:00.050Z,97.60
2023-05-05T13:15:28.126Z,97.80
2023-05-05T13:18:01.915Z,97.80
2023-05-05T13:20:29.037Z,98.10
2023-05-05T13:22:56.359Z,98.30
2023-05-05T13:25:23.238Z,98.40
2023-05-05T13:27:50.668Z,98.50
2023-05-05T13:30:17.637Z,98.70
2023-05-05T13:32:44.544Z,98.80
2023-05-05T13:35:13.897Z,98.80
2023-05-05T13:37:42.653Z,98.80
2023-05-05T13:40:11.122Z,98.70
2023-05-05T13:42:37.934Z,98.80
2023-05-05T13:45:06.058Z,98.90
2023-05-05T13:47:34.633Z,98.90
2023-05-05T13:50:11.932Z,98.90
2023-05-05T13:52:40.440Z,99.10
2023-05-05T13:55:11.665Z,99.10
2023-05-05T13:57:40.208Z,99.20
2023-05-05T14:00:12.919Z,99.10
2023-05-05T14:02:39.977Z,99.00
2023-05-05T14:05:08.058Z,99.00
2023-05-05T14:07:34.954Z,99.10
2023-05-05T14:10:01.862Z,99.30
2023-05-05T14:12:28.692Z,99.20
2023-05-05T14:14:55.558Z,99.30
2023-05-05T14:17:23.182Z,99.50
2023-05-05T14:19:51.017Z,99.50
2023-05-05T14:22:18.029Z,99.60
2023-05-05T14:24:45.031Z,99.80
2023-05-05T14:27:16.959Z,99.70
2023-05-05T14:29:44.137Z,99.60
2023-05-05T14:32:11.328Z,99.40
2023-05-05T14:34:41.568Z,99.50
2023-05-05T14:37:08.484Z,99.50
2023-05-05T14:39:40.055Z,99.10
2023-05-05T14:42:07.280Z,98.80
2023-05-05T14:44:34.322Z,98.50
2023-05-05T14:47:01.197Z,98.50
2023-05-05T14:49:28.209Z,98.40
2023-05-05T14:51:56.691Z,98.10
2023-05-05T14:54:28.345Z,97.90
2023-05-05T14:56:56.550Z,97.80
2023-05-05T14:59:32.089Z,97.60
2023-05-05T15:02:00.112Z,97.00
2023-05-05T15:04:27.286Z,96.40
2023-05-05T15:06:54.152Z,96.00
2023-05-05T15:09:27.434Z,95.80
2023-05-05T15:11:54.364Z,95.70
2023-05-05T15:14:21.309Z,95.70
2023-05-05T15:16:48.344Z,96.00
2023-05-05T15:19:15.457Z,95.90
2023-05-05T15:21:44.179Z,96.00
2023-05-05T15:24:11.451Z,95.70
2023-05-05T15:26:38.581Z,95.30
2023-05-05T15:29:06.447Z,94.90
2023-05-05T15:31:33.461Z,94.80
2023-05-05T15:34:00.297Z,94.70
2023-05-05T15:36:28.817Z,94.70
2023-05-05T15:38:56.500Z,94.40
2023-05-05T15:41:26.827Z,93.70
2023-05-05T15:43:53.807Z,93.50
2023-05-05T15:46:24.129Z,93.20
2023-05-05T15:48:51.538Z,93.00
2023-05-05T15:51:19.515Z,92.60
2023-05-05T15:53:46.888Z,92.60
2023-05-05T15:56:14.181Z,92.30
2023-05-05T15:58:41.035Z,92.20
2023-05-05T16:01:08.116Z,92.20
2023-05-05T16:03:37.519Z,92.00
2023-05-05T16:06:06.455Z,91.90
2023-05-05T16:08:36.986Z,92.00
2023-05-05T16:11:27.188Z,92.00
2023-05-05T16:13:55.488Z,91.80
2023-05-05T16:16:27.798Z,91.70
2023-05-05T16:18:54.929Z,91.30
2023-05-05T16:21:22.993Z,91.20
2023-05-05T16:23:51.483Z,90.80
2023-05-05T16:26:18.563Z,90.20
2023-05-05T16:28:45.724Z,90.60
2023-05-05T16:31:16.086Z,91.20
2023-05-05T16:33:44.157Z,91.40
2023-05-05T16:36:13.536Z,91.80
2023-05-05T16:38:41.265Z,92.20
2023-05-05T16:41:16.151Z,92.30
2023-05-05T16:43:50.798Z,92.30
2023-05-05T16:46:18.497Z,92.00
2023-05-05T16:48:46.218Z,91.70
2023-05-05T16:51:14.230Z,92.10
2023-05-05T16:53:47.557Z,92.20
2023-05-05T16:56:17.244Z,92.20
2023-05-05T16:58:47.873Z,92.50
2023-05-05T17:01:15.702Z,92.90
2023-05-05T17:03:42.626Z,93.10
2023-05-05T17:06:09.919Z,93.50
2023-05-05T17:08:37.160Z,93.40
2023-05-05T17:11:04.309Z,93.30
2023-05-05T17:13:33.240Z,93.60
2023-05-05T17:16:01.131Z,93.30
2023-05-05T17:18:29.183Z,93.10
2023-05-05T17:20:56.507Z,93.20
2023-05-05T17:23:23.486Z,93.30
2023-05-05T17:25:55.732Z,93.40
2023-05-05T17:28:23.700Z,93.70
2023-05-05T17:30:52.022Z,93.90
2023-05-05T17:33:22.033Z,93.80
2023-05-05T17:35:57.417Z,93.60
2023-05-05T17:38:26.180Z,93.40
2023-05-05T17:40:53.306Z,93.20
2023-05-05T17:43:20.537Z,93.60
2023-05-05T17:45:47.696Z,93.90
2023-05-05T17:48:31.942Z,94.00
2023-05-05T17:50:59.362Z,94.10
2023-05-05T17:53:29.967Z,94.00
2023-05-05T17:56:00.068Z,94.20
2023-05-05T17:58:28.043Z,94.40
2023-05-05T18:00:55.009Z,94.60
2023-05-05T18:03:21.968Z,94.70
2023-05-05T18:05:53.480Z,94.50
2023-05-05T18:08:23.900Z,94.40
2023-05-05T18:10:51.141Z,94.70
2023-05-05T18:13:22.118Z,94.70
2023-05-05T18:15:49.037Z,95.20
2023-05-05T18:18:18.172Z,95.50
2023-05-05T18:20:44.937Z,95.70
2023-05-05T18:23:13.042Z,95.80
2023-05-05T18:25:41.498Z,96.10
2023-05-05T18:28:10.175Z,96.10
2023-05-05T18:30:38.517Z,96.20
2023-05-05T18:33:05.812Z,96.50
2023-05-05T18:35:33.080Z,96.80
2023-05-05T18:38:01.140Z,97.00
2023-05-05T18:40:31.898Z,97.10
2023-05-05T18:43:00.707Z,97.10
2023-05-05T18:45:29.402Z,97.20
2023-05-05T18:47:56.529Z,97.40
2023-05-05T18:50:23.687Z,97.60
2023-05-05T18:52:51.655Z,97.70
2023-05-05T18:55:19.154Z,97.90
2023-05-05T19:00:27.229Z,98.30
2023-05-05T19:02:54.596Z,98.50
2023-05-05T19:05:24.075Z,98.80
2023-05-05T19:07:54.907Z,99.00
2023-05-05T19:10:24.146Z,99.30
2023-05-05T19:12:57.458Z,99.50
2023-05-05T19:15:24.803Z,99.70
2023-05-05T19:17:53.659Z,99.80
2023-05-05T19:20:22.357Z,99.90
2023-05-05T19:22:49.745Z,99.90
2023-05-05T19:25:19.554Z,99.90
2023-05-05T19:27:46.432Z,99.90
2023-05-05T19:30:13.634Z,99.90
2023-05-05T19:32:42.338Z,99.90
2023-05-05T19:35:12.139Z,99.90
2023-05-05T19:37:40.087Z,99.90
2023-05-05T19:40:08.553Z,99.90
2023-05-05T19:42:43.067Z,99.90
2023-05-05T19:45:26.947Z,99.90
2023-05-05T19:47:53.976Z,99.90
2023-05-05T19:50:21.544Z,99.90
2023-05-05T19:52:48.711Z,99.90
2023-05-05T19:55:16.209Z,99.90
2023-05-05T19:57:45.309Z,99.90
2023-05-05T20:00:13.400Z,99.90
2023-05-05T20:02:45.697Z,99.90
2023-05-05T20:05:17.668Z,99.90
2023-05-05T20:07:47.029Z,99.90
2023-05-05T20:10:14.833Z,99.90
2023-05-05T20:12:48.532Z,99.90
2023-05-05T20:15:18.927Z,99.90
2023-05-05T20:17:49.120Z,99.90
2023-05-05T20:20:18.840Z,99.90
2023-05-05T20:22:46.647Z,99.90
2023-05-05T20:25:17.152Z,99.90
2023-05-05T20:27:45.769Z,99.90
2023-05-05T20:30:13.181Z,99.90
2023-05-05T20:32:41.193Z,99.90
2023-05-05T20:35:08.846Z,99.90
2023-05-05T20:37:35.745Z,99.90
2023-05-05T20:40:02.679Z,99.90
2023-05-05T20:42:30.480Z,99.90
2023-05-05T20:44:58.745Z,99.90
2023-05-05T20:47:27.081Z,99.90
2023-05-05T20:49:54.753Z,99.90
2023-05-05T20:52:23.072Z,99.90
2023-05-05T20:54:50.963Z,99.90
2023-05-05T20:57:18.024Z,99.90
2023-05-05T20:59:45.101Z,99.90
2023-05-05T21:02:12.213Z,99.90
2023-05-05T21:04:40.588Z,99.90
2023-05-05T21:07:10.557Z,99.90
2023-05-05T21:09:40.046Z,99.90
2023-05-05T21:12:07.288Z,99.90
2023-05-05T21:14:34.169Z,99.90
2023-05-05T21:17:01.263Z,99.90
2023-05-05T21:19:28.104Z,99.90
2023-05-05T21:21:59.185Z,99.90
2023-05-05T21:24:27.734Z,99.90
2023-05-05T21:26:56.385Z,99.90
2023-05-05T21:29:24.776Z,99.90
2023-05-05T21:31:52.021Z,99.90
2023-05-05T21:34:22.069Z,99.90
2023-05-05T21:36:48.927Z,99.90
2023-05-05T21:39:15.913Z,99.90
2023-05-05T21:41:44.461Z,99.90
2023-05-05T21:44:11.338Z,99.90
2023-05-05T21:46:38.643Z,99.90
2023-05-05T21:49:14.028Z,99.90
2023-05-05T21:51:42.078Z,99.90
2023-05-05T21:54:11.529Z,99.90
2023-05-05T21:56:43.791Z,99.90
2023-05-05T21:59:11.225Z,99.90
2023-05-05T22:01:38.235Z,99.90
2023-05-05T22:04:05.451Z,99.90
2023-05-05T22:06:32.764Z,99.90
2023-05-05T22:08:59.795Z,99.90
2023-05-05T22:11:26.740Z,99.90
2023-05-05T22:13:54.407Z,99.90
2023-05-05T22:16:21.315Z,99.90
2023-05-05T22:18:48.528Z,99.90
2023-05-05T22:21:15.677Z,99.90
2023-05-05T22:23:42.564Z,99.90
2023-05-05T22:26:10.438Z,99.90
2023-05-05T22:28:38.392Z,99.90
2023-05-05T22:31:05.548Z,99.90
2023-05-05T22:33:33.147Z,99.90
2023-05-05T22:36:00.035Z,99.90
2023-05-05T22:38:27.023Z,99.90
2023-05-05T22:40:53.833Z,99.90
2023-05-05T22:43:20.810Z,99.90
2023-05-05T22:45:47.920Z,99.90
2023-05-05T22:48:15.122Z,99.90
2023-05-05T22:50:43.360Z,99.90
2023-05-05T22:53:16.971Z,99.90
2023-05-05T22:55:43.846Z,99.90
2023-05-05T22:58:11.140Z,99.90
2023-05-05T23:00:37.986Z,99.90
2023-05-05T23:03:04.985Z,99.90
2023-05-05T23:05:32.068Z,99.90
2023-05-05T23:08:01.648Z,99.90
2023-05-05T23:10:29.296Z,99.90
2023-05-05T23:12:58.324Z,99.90
2023-05-05T23:15:25.794Z,99.90
2023-05-05T23:17:53.002Z,99.90
2023-05-05T23:20:23.887Z,99.90
2023-05-05T23:22:53.752Z,99.90
2023-05-05T23:25:21.166Z,99.90
2023-05-05T23:27:51.402Z,99.90
2023-05-05T23:30:18.880Z,99.90
2023-05-05T23:32:46.112Z,99.90
2023-05-05T23:35:13.494Z,99.90
2023-05-05T23:37:42.297Z,99.90
2023-05-05T23:40:10.516Z,99.90
2023-05-05T23:42:37.402Z,99.90
2023-05-05T23:45:08.706Z,99.90
2023-05-05T23:47:35.997Z,99.90
2023-05-05T23:50:03.639Z,99.90
2023-05-05T23:52:30.554Z,99.90
2023-05-05T23:54:57.455Z,99.90
2023-05-05T23:57:24.266Z,99.90
2023-05-05T23:59:51.449Z,99.90
